sensor_id;sensor_type;location;lat;lon;timestamp;temperature;humidity
1958;DHT22;979;51.076;13.748;2023-04-01T00:02:23;12.80;70.40
1958;DHT22;979;51.076;13.748;2023-04-01T00:04:56;12.80;70.70
1958;DHT22;979;51.076;13.748;2023-04-01T00:07:27;12.70;71.20
1958;DHT22;979;51.076;13.748;2023-04-01T00:09:56;12.60;71.10
1958;DHT22;979;51.076;13.748;2023-04-01T00:12:25;12.60;71.40
1958;DHT22;979;51.076;13.748;2023-04-01T00:14:55;12.50;71.50
1958;DHT22;979;51.076;13.748;2023-04-01T00:17:27;12.50;71.90
1958;DHT22;979;51.076;13.748;2023-04-01T00:20:19;12.50;71.80
1958;DHT22;979;51.076;13.748;2023-04-01T00:22:57;12.50;71.90
1958;DHT22;979;51.076;13.748;2023-04-01T00:25:26;12.60;71.90
1958;DHT22;979;51.076;13.748;2023-04-01T00:27:54;12.60;71.90
1958;DHT22;979;51.076;13.748;2023-04-01T00:30:23;12.60;72.00
1958;DHT22;979;51.076;13.748;2023-04-01T00:32:52;12.60;72.10
1958;DHT22;979;51.076;13.748;2023-04-01T00:35:21;12.60;71.90
1958;DHT22;979;51.076;13.748;2023-04-01T00:37:49;12.60;71.90
1958;DHT22;979;51.076;13.748;2023-04-01T00:40:27;12.70;72.10
1958;DHT22;979;51.076;13.748;2023-04-01T00:42:57;12.60;71.90
1958;DHT22;979;51.076;13.748;2023-04-01T00:45:35;12.70;72.00
1958;DHT22;979;51.076;13.748;2023-04-01T00:48:10;12.70;72.10
1958;DHT22;979;51.076;13.748;2023-04-01T00:50:44;12.70;72.10
1958;DHT22;979;51.076;13.748;2023-04-01T00:53:18;12.70;72.10
1958;DHT22;979;51.076;13.748;2023-04-01T00:55:57;12.70;72.50
1958;DHT22;979;51.076;13.748;2023-04-01T00:58:28;12.60;72.30
1958;DHT22;979;51.076;13.748;2023-04-01T01:00:59;12.70;72.40
1958;DHT22;979;51.076;13.748;2023-04-01T01:03:28;12.70;72.30
1958;DHT22;979;51.076;13.748;2023-04-01T01:06:08;12.70;72.50
1958;DHT22;979;51.076;13.748;2023-04-01T01:11:43;12.70;72.40
1958;DHT22;979;51.076;13.748;2023-04-01T01:14:24;12.70;72.60
1958;DHT22;979;51.076;13.748;2023-04-01T01:17:08;12.50;72.20
1958;DHT22;979;51.076;13.748;2023-04-01T01:20:08;12.70;72.40
1958;DHT22;979;51.076;13.748;2023-04-01T01:25:58;12.70;72.30
1958;DHT22;979;51.076;13.748;2023-04-01T01:28:45;12.70;72.20
1958;DHT22;979;51.076;13.748;2023-04-01T01:31:36;12.80;72.30
1958;DHT22;979;51.076;13.748;2023-04-01T01:34:12;12.80;72.30
1958;DHT22;979;51.076;13.748;2023-04-01T01:36:56;12.80;72.10
1958;DHT22;979;51.076;13.748;2023-04-01T01:39:32;12.80;72.20
1958;DHT22;979;51.076;13.748;2023-04-01T01:42:11;12.80;72.30
1958;DHT22;979;51.076;13.748;2023-04-01T01:44:45;12.80;72.10
1958;DHT22;979;51.076;13.748;2023-04-01T01:47:15;12.80;72.10
1958;DHT22;979;51.076;13.748;2023-04-01T01:49:45;12.80;71.90
1958;DHT22;979;51.076;13.748;2023-04-01T01:52:40;12.80;72.10
1958;DHT22;979;51.076;13.748;2023-04-01T01:55:39;12.80;71.90
1958;DHT22;979;51.076;13.748;2023-04-01T01:58:39;13.00;72.30
1958;DHT22;979;51.076;13.748;2023-04-01T02:01:30;12.80;71.90
1958;DHT22;979;51.076;13.748;2023-04-01T02:04:56;12.80;71.90
1958;DHT22;979;51.076;13.748;2023-04-01T02:07:57;12.80;72.10
1958;DHT22;979;51.076;13.748;2023-04-01T02:10:41;12.80;71.60
1958;DHT22;979;51.076;13.748;2023-04-01T02:13:16;12.80;71.80
1958;DHT22;979;51.076;13.748;2023-04-01T02:15:49;12.80;71.60
1958;DHT22;979;51.076;13.748;2023-04-01T02:18:19;12.80;71.60
1958;DHT22;979;51.076;13.748;2023-04-01T02:20:49;13.00;72.70
1958;DHT22;979;51.076;13.748;2023-04-01T02:23:20;12.80;71.50
1958;DHT22;979;51.076;13.748;2023-04-01T02:25:49;12.80;71.90
1958;DHT22;979;51.076;13.748;2023-04-01T02:28:20;12.90;71.90
1958;DHT22;979;51.076;13.748;2023-04-01T02:30:50;12.80;71.60
1958;DHT22;979;51.076;13.748;2023-04-01T02:33:24;12.90;71.70
1958;DHT22;979;51.076;13.748;2023-04-01T02:35:56;12.90;71.70
1958;DHT22;979;51.076;13.748;2023-04-01T02:38:28;12.80;71.50
1958;DHT22;979;51.076;13.748;2023-04-01T02:41:00;12.90;72.00
1958;DHT22;979;51.076;13.748;2023-04-01T02:43:32;12.90;71.60
1958;DHT22;979;51.076;13.748;2023-04-01T02:46:01;12.90;71.50
1958;DHT22;979;51.076;13.748;2023-04-01T02:48:30;12.90;71.60
1958;DHT22;979;51.076;13.748;2023-04-01T02:51:01;12.90;71.60
1958;DHT22;979;51.076;13.748;2023-04-01T02:53:35;12.90;71.50
1958;DHT22;979;51.076;13.748;2023-04-01T02:56:10;12.90;71.70
1958;DHT22;979;51.076;13.748;2023-04-01T02:58:51;12.80;71.10
1958;DHT22;979;51.076;13.748;2023-04-01T03:01:19;12.80;71.20
1958;DHT22;979;51.076;13.748;2023-04-01T03:03:50;12.80;71.30
1958;DHT22;979;51.076;13.748;2023-04-01T03:06:30;12.80;71.40
1958;DHT22;979;51.076;13.748;2023-04-01T03:09:10;12.80;71.50
1958;DHT22;979;51.076;13.748;2023-04-01T03:11:44;12.70;71.30
1958;DHT22;979;51.076;13.748;2023-04-01T03:14:16;12.80;71.50
1958;DHT22;979;51.076;13.748;2023-04-01T03:16:47;12.90;71.70
1958;DHT22;979;51.076;13.748;2023-04-01T03:19:25;12.80;71.30
1958;DHT22;979;51.076;13.748;2023-04-01T03:21:59;12.70;71.30
1958;DHT22;979;51.076;13.748;2023-04-01T03:24:38;12.80;71.40
1958;DHT22;979;51.076;13.748;2023-04-01T03:27:14;12.80;71.20
1958;DHT22;979;51.076;13.748;2023-04-01T03:29:45;12.80;71.30
1958;DHT22;979;51.076;13.748;2023-04-01T03:32:18;12.80;71.30
1958;DHT22;979;51.076;13.748;2023-04-01T03:34:47;12.80;71.10
1958;DHT22;979;51.076;13.748;2023-04-01T03:37:18;12.90;71.10
1958;DHT22;979;51.076;13.748;2023-04-01T03:39:48;12.90;71.30
1958;DHT22;979;51.076;13.748;2023-04-01T03:42:16;12.90;71.10
1958;DHT22;979;51.076;13.748;2023-04-01T03:44:45;12.90;70.90
1958;DHT22;979;51.076;13.748;2023-04-01T03:47:14;13.00;71.00
1958;DHT22;979;51.076;13.748;2023-04-01T03:49:45;13.00;71.10
1958;DHT22;979;51.076;13.748;2023-04-01T03:52:13;13.00;70.90
1958;DHT22;979;51.076;13.748;2023-04-01T03:54:44;13.00;71.60
1958;DHT22;979;51.076;13.748;2023-04-01T03:57:14;13.00;70.90
1958;DHT22;979;51.076;13.748;2023-04-01T03:59:44;12.90;70.60
1958;DHT22;979;51.076;13.748;2023-04-01T04:02:15;13.00;70.80
1958;DHT22;979;51.076;13.748;2023-04-01T04:04:45;13.00;70.90
1958;DHT22;979;51.076;13.748;2023-04-01T04:07:14;13.00;70.90
1958;DHT22;979;51.076;13.748;2023-04-01T04:10:05;13.00;70.70
1958;DHT22;979;51.076;13.748;2023-04-01T04:12:35;12.90;70.40
1958;DHT22;979;51.076;13.748;2023-04-01T04:15:05;13.10;70.70
1958;DHT22;979;51.076;13.748;2023-04-01T04:17:36;13.10;70.30
1958;DHT22;979;51.076;13.748;2023-04-01T04:20:12;13.00;70.50
1958;DHT22;979;51.076;13.748;2023-04-01T04:22:43;13.00;70.50
1958;DHT22;979;51.076;13.748;2023-04-01T04:25:13;13.00;70.50
1958;DHT22;979;51.076;13.748;2023-04-01T04:28:03;13.00;70.70
1958;DHT22;979;51.076;13.748;2023-04-01T04:30:31;13.00;70.30
1958;DHT22;979;51.076;13.748;2023-04-01T04:33:03;13.00;70.70
1958;DHT22;979;51.076;13.748;2023-04-01T04:35:34;13.00;70.70
1958;DHT22;979;51.076;13.748;2023-04-01T04:38:05;13.00;70.50
1958;DHT22;979;51.076;13.748;2023-04-01T04:40:38;13.00;70.40
1958;DHT22;979;51.076;13.748;2023-04-01T04:43:10;13.10;70.30
1958;DHT22;979;51.076;13.748;2023-04-01T04:45:41;13.10;70.30
1958;DHT22;979;51.076;13.748;2023-04-01T04:48:10;13.10;70.20
1958;DHT22;979;51.076;13.748;2023-04-01T04:50:46;13.10;70.10
1958;DHT22;979;51.076;13.748;2023-04-01T04:53:19;13.00;69.90
1958;DHT22;979;51.076;13.748;2023-04-01T04:55:49;13.00;70.00
1958;DHT22;979;51.076;13.748;2023-04-01T04:58:35;13.00;69.70
1958;DHT22;979;51.076;13.748;2023-04-01T05:01:09;13.00;69.70
1958;DHT22;979;51.076;13.748;2023-04-01T05:03:39;13.00;69.80
1958;DHT22;979;51.076;13.748;2023-04-01T05:06:09;13.00;69.90
1958;DHT22;979;51.076;13.748;2023-04-01T05:08:38;13.10;69.80
1958;DHT22;979;51.076;13.748;2023-04-01T05:11:10;13.10;69.90
1958;DHT22;979;51.076;13.748;2023-04-01T05:13:44;13.10;69.60
1958;DHT22;979;51.076;13.748;2023-04-01T05:16:17;13.00;69.60
1958;DHT22;979;51.076;13.748;2023-04-01T05:18:46;13.10;69.70
1958;DHT22;979;51.076;13.748;2023-04-01T05:21:15;13.00;69.50
1958;DHT22;979;51.076;13.748;2023-04-01T05:23:48;13.10;69.80
1958;DHT22;979;51.076;13.748;2023-04-01T05:26:17;13.00;69.70
1958;DHT22;979;51.076;13.748;2023-04-01T05:28:47;13.10;70.50
1958;DHT22;979;51.076;13.748;2023-04-01T05:32:02;13.10;69.80
1958;DHT22;979;51.076;13.748;2023-04-01T05:34:38;13.10;69.40
1958;DHT22;979;51.076;13.748;2023-04-01T05:37:21;12.90;69.50
1958;DHT22;979;51.076;13.748;2023-04-01T05:39:53;13.10;69.80
1958;DHT22;979;51.076;13.748;2023-04-01T05:42:26;13.10;69.90
1958;DHT22;979;51.076;13.748;2023-04-01T05:44:56;13.10;69.70
1958;DHT22;979;51.076;13.748;2023-04-01T05:47:45;13.10;69.80
1958;DHT22;979;51.076;13.748;2023-04-01T05:50:15;13.10;69.60
1958;DHT22;979;51.076;13.748;2023-04-01T05:52:43;13.20;69.80
1958;DHT22;979;51.076;13.748;2023-04-01T05:55:19;13.10;69.60
1958;DHT22;979;51.076;13.748;2023-04-01T05:57:54;13.00;69.30
1958;DHT22;979;51.076;13.748;2023-04-01T06:00:24;13.10;69.40
1958;DHT22;979;51.076;13.748;2023-04-01T06:02:58;13.10;69.60
1958;DHT22;979;51.076;13.748;2023-04-01T06:05:41;13.30;70.00
1958;DHT22;979;51.076;13.748;2023-04-01T06:08:17;13.10;69.50
1958;DHT22;979;51.076;13.748;2023-04-01T06:11:04;13.30;69.80
1958;DHT22;979;51.076;13.748;2023-04-01T06:13:56;13.30;69.60
1958;DHT22;979;51.076;13.748;2023-04-01T06:16:37;13.30;69.50
1958;DHT22;979;51.076;13.748;2023-04-01T06:19:24;13.30;69.50
1958;DHT22;979;51.076;13.748;2023-04-01T06:22:13;13.40;69.60
1958;DHT22;979;51.076;13.748;2023-04-01T06:28:03;13.50;69.40
1958;DHT22;979;51.076;13.748;2023-04-01T06:30:43;13.50;69.40
1958;DHT22;979;51.076;13.748;2023-04-01T06:33:48;13.60;69.50
1958;DHT22;979;51.076;13.748;2023-04-01T06:36:52;13.60;69.00
1958;DHT22;979;51.076;13.748;2023-04-01T06:42:48;13.90;69.20
1958;DHT22;979;51.076;13.748;2023-04-01T06:45:44;13.80;68.90
1958;DHT22;979;51.076;13.748;2023-04-01T06:49:00;13.80;69.10
1958;DHT22;979;51.076;13.748;2023-04-01T06:52:01;13.90;68.80
1958;DHT22;979;51.076;13.748;2023-04-01T06:55:12;14.00;68.70
1958;DHT22;979;51.076;13.748;2023-04-01T06:58:13;14.00;68.30
1958;DHT22;979;51.076;13.748;2023-04-01T07:00:51;14.00;68.00
1958;DHT22;979;51.076;13.748;2023-04-01T07:03:26;14.00;68.00
1958;DHT22;979;51.076;13.748;2023-04-01T07:06:25;14.00;68.20
1958;DHT22;979;51.076;13.748;2023-04-01T07:09:05;14.20;68.10
1958;DHT22;979;51.076;13.748;2023-04-01T07:11:59;14.20;67.90
1958;DHT22;979;51.076;13.748;2023-04-01T07:14:49;14.20;68.10
1958;DHT22;979;51.076;13.748;2023-04-01T07:17:22;14.30;67.80
1958;DHT22;979;51.076;13.748;2023-04-01T07:19:56;14.30;67.50
1958;DHT22;979;51.076;13.748;2023-04-01T07:22:33;14.30;67.60
1958;DHT22;979;51.076;13.748;2023-04-01T07:25:27;14.30;67.20
1958;DHT22;979;51.076;13.748;2023-04-01T07:28:30;14.40;67.10
1958;DHT22;979;51.076;13.748;2023-04-01T07:31:36;14.40;67.10
1958;DHT22;979;51.076;13.748;2023-04-01T07:34:17;14.40;66.90
1958;DHT22;979;51.076;13.748;2023-04-01T07:37:01;14.50;67.20
1958;DHT22;979;51.076;13.748;2023-04-01T07:39:46;14.40;66.50
1958;DHT22;979;51.076;13.748;2023-04-01T07:42:44;14.50;66.40
1958;DHT22;979;51.076;13.748;2023-04-01T07:45:25;14.50;66.50
1958;DHT22;979;51.076;13.748;2023-04-01T07:48:10;14.60;66.70
1958;DHT22;979;51.076;13.748;2023-04-01T07:50:48;14.60;66.30
1958;DHT22;979;51.076;13.748;2023-04-01T07:53:30;14.60;66.30
1958;DHT22;979;51.076;13.748;2023-04-01T07:56:09;14.70;66.20
1958;DHT22;979;51.076;13.748;2023-04-01T07:58:57;14.80;66.20
1958;DHT22;979;51.076;13.748;2023-04-01T08:02:11;14.80;65.80
1958;DHT22;979;51.076;13.748;2023-04-01T08:04:55;14.80;65.50
1958;DHT22;979;51.076;13.748;2023-04-01T08:08:02;14.80;65.40
1958;DHT22;979;51.076;13.748;2023-04-01T08:11:11;15.00;65.50
1958;DHT22;979;51.076;13.748;2023-04-01T08:14:13;14.70;65.30
1958;DHT22;979;51.076;13.748;2023-04-01T08:17:30;14.90;66.20
1958;DHT22;979;51.076;13.748;2023-04-01T08:20:18;14.90;65.50
1958;DHT22;979;51.076;13.748;2023-04-01T08:22:58;14.80;65.00
1958;DHT22;979;51.076;13.748;2023-04-01T08:25:40;14.90;65.30
1958;DHT22;979;51.076;13.748;2023-04-01T08:28:24;14.90;65.30
1958;DHT22;979;51.076;13.748;2023-04-01T08:31:06;14.90;65.20
1958;DHT22;979;51.076;13.748;2023-04-01T08:33:41;15.00;65.00
1958;DHT22;979;51.076;13.748;2023-04-01T08:36:15;14.80;64.60
1958;DHT22;979;51.076;13.748;2023-04-01T08:38:57;15.10;64.80
1958;DHT22;979;51.076;13.748;2023-04-01T08:45:09;15.00;64.30
1958;DHT22;979;51.076;13.748;2023-04-01T08:48:16;15.10;64.50
1958;DHT22;979;51.076;13.748;2023-04-01T08:54:13;15.20;64.40
1958;DHT22;979;51.076;13.748;2023-04-01T08:56:53;15.20;64.10
1958;DHT22;979;51.076;13.748;2023-04-01T08:59:39;15.20;63.90
1958;DHT22;979;51.076;13.748;2023-04-01T09:03:15;15.10;63.60
1958;DHT22;979;51.076;13.748;2023-04-01T09:12:37;15.20;64.10
1958;DHT22;979;51.076;13.748;2023-04-01T09:15:37;15.30;63.80
1958;DHT22;979;51.076;13.748;2023-04-01T09:21:28;15.40;63.60
1958;DHT22;979;51.076;13.748;2023-04-01T09:27:26;15.40;63.70
1958;DHT22;979;51.076;13.748;2023-04-01T09:30:45;15.50;63.80
1958;DHT22;979;51.076;13.748;2023-04-01T09:34:05;15.40;63.30
1958;DHT22;979;51.076;13.748;2023-04-01T09:37:22;15.60;63.50
1958;DHT22;979;51.076;13.748;2023-04-01T09:40:23;15.60;63.40
1958;DHT22;979;51.076;13.748;2023-04-01T09:43:16;15.70;63.60
1958;DHT22;979;51.076;13.748;2023-04-01T09:49:09;15.60;63.70
1958;DHT22;979;51.076;13.748;2023-04-01T09:51:56;15.60;62.70
1958;DHT22;979;51.076;13.748;2023-04-01T09:55:38;15.60;62.60
1958;DHT22;979;51.076;13.748;2023-04-01T10:02:27;15.80;62.60
1958;DHT22;979;51.076;13.748;2023-04-01T10:05:48;15.90;62.50
1958;DHT22;979;51.076;13.748;2023-04-01T10:12:46;15.80;62.10
1958;DHT22;979;51.076;13.748;2023-04-01T11:22:18;15.90;63.20
1958;DHT22;979;51.076;13.748;2023-04-01T11:25:15;16.00;63.50
1958;DHT22;979;51.076;13.748;2023-04-01T11:28:35;15.90;63.60
1958;DHT22;979;51.076;13.748;2023-04-01T11:31:29;16.40;64.30
1958;DHT22;979;51.076;13.748;2023-04-01T11:34:32;16.60;64.30
1958;DHT22;979;51.076;13.748;2023-04-01T11:59:47;16.80;64.00
1958;DHT22;979;51.076;13.748;2023-04-01T12:32:06;17.00;63.40
1958;DHT22;979;51.076;13.748;2023-04-01T12:35:24;16.90;63.20
1958;DHT22;979;51.076;13.748;2023-04-01T12:39:20;17.00;63.00
1958;DHT22;979;51.076;13.748;2023-04-01T12:41:55;16.90;63.30
1958;DHT22;979;51.076;13.748;2023-04-01T12:56:44;17.90;64.60
1958;DHT22;979;51.076;13.748;2023-04-01T12:59:40;19.50;63.40
1958;DHT22;979;51.076;13.748;2023-04-01T13:02:24;20.30;62.40
1958;DHT22;979;51.076;13.748;2023-04-01T13:05:37;20.70;61.10
1958;DHT22;979;51.076;13.748;2023-04-01T13:08:42;21.40;60.20
1958;DHT22;979;51.076;13.748;2023-04-01T13:11:20;21.30;59.60
1958;DHT22;979;51.076;13.748;2023-04-01T13:17:06;20.80;58.50
1958;DHT22;979;51.076;13.748;2023-04-01T13:19:40;20.50;58.30
1958;DHT22;979;51.076;13.748;2023-04-01T13:22:41;20.00;58.00
1958;DHT22;979;51.076;13.748;2023-04-01T13:28:56;19.20;58.20
1958;DHT22;979;51.076;13.748;2023-04-01T13:35:57;18.30;59.30
1958;DHT22;979;51.076;13.748;2023-04-01T13:39:31;17.90;59.00
1958;DHT22;979;51.076;13.748;2023-04-01T13:42:15;17.60;59.30
1958;DHT22;979;51.076;13.748;2023-04-01T13:44:50;17.60;60.20
1958;DHT22;979;51.076;13.748;2023-04-01T13:47:46;17.20;60.00
1958;DHT22;979;51.076;13.748;2023-04-01T13:54:15;17.70;61.40
1958;DHT22;979;51.076;13.748;2023-04-01T13:56:57;18.40;61.40
1958;DHT22;979;51.076;13.748;2023-04-01T13:59:56;19.50;62.00
1958;DHT22;979;51.076;13.748;2023-04-01T14:06:05;20.40;58.90
1958;DHT22;979;51.076;13.748;2023-04-01T14:08:42;20.20;58.50
1958;DHT22;979;51.076;13.748;2023-04-01T14:11:24;19.80;58.30
1958;DHT22;979;51.076;13.748;2023-04-01T14:14:01;19.60;58.10
1958;DHT22;979;51.076;13.748;2023-04-01T14:19:31;20.00;58.60
1958;DHT22;979;51.076;13.748;2023-04-01T14:22:13;20.20;58.00
1958;DHT22;979;51.076;13.748;2023-04-01T14:24:57;20.60;57.70
1958;DHT22;979;51.076;13.748;2023-04-01T14:27:40;21.40;57.90
1958;DHT22;979;51.076;13.748;2023-04-01T14:30:28;21.90;56.20
1958;DHT22;979;51.076;13.748;2023-04-01T14:33:04;21.70;54.80
1958;DHT22;979;51.076;13.748;2023-04-01T14:35:40;21.60;54.90
1958;DHT22;979;51.076;13.748;2023-04-01T14:38:51;21.30;54.90
1958;DHT22;979;51.076;13.748;2023-04-01T14:41:48;20.90;54.60
1958;DHT22;979;51.076;13.748;2023-04-01T14:44:50;20.40;55.10
1958;DHT22;979;51.076;13.748;2023-04-01T14:50:09;19.50;55.40
1958;DHT22;979;51.076;13.748;2023-04-01T14:53:11;19.10;55.80
1958;DHT22;979;51.076;13.748;2023-04-01T14:55:53;18.90;56.30
1958;DHT22;979;51.076;13.748;2023-04-01T14:58:27;18.50;56.40
1958;DHT22;979;51.076;13.748;2023-04-01T15:01:23;18.20;56.40
1958;DHT22;979;51.076;13.748;2023-04-01T15:04:41;18.00;56.70
1958;DHT22;979;51.076;13.748;2023-04-01T15:14:55;18.40;56.50
1958;DHT22;979;51.076;13.748;2023-04-01T15:17:46;18.50;56.60
1958;DHT22;979;51.076;13.748;2023-04-01T15:23:25;18.30;56.40
1958;DHT22;979;51.076;13.748;2023-04-01T15:28:49;17.80;56.30
1958;DHT22;979;51.076;13.748;2023-04-01T15:31:28;17.70;56.60
1958;DHT22;979;51.076;13.748;2023-04-01T15:34:33;17.70;57.00
1958;DHT22;979;51.076;13.748;2023-04-01T15:37:15;17.50;56.90
1958;DHT22;979;51.076;13.748;2023-04-01T15:40:20;17.40;57.10
1958;DHT22;979;51.076;13.748;2023-04-01T15:43:22;17.50;57.20
1958;DHT22;979;51.076;13.748;2023-04-01T15:49:03;17.30;57.90
1958;DHT22;979;51.076;13.748;2023-04-01T15:51:47;17.20;57.40
1958;DHT22;979;51.076;13.748;2023-04-01T15:57:42;17.00;57.90
1958;DHT22;979;51.076;13.748;2023-04-01T16:00:27;16.90;58.00
1958;DHT22;979;51.076;13.748;2023-04-01T16:03:14;16.80;58.10
1958;DHT22;979;51.076;13.748;2023-04-01T16:06:20;16.90;58.40
1958;DHT22;979;51.076;13.748;2023-04-01T16:09:21;16.70;58.30
1958;DHT22;979;51.076;13.748;2023-04-01T16:12:00;16.60;58.30
1958;DHT22;979;51.076;13.748;2023-04-01T16:14:40;16.60;58.40
1958;DHT22;979;51.076;13.748;2023-04-01T16:17:30;16.60;58.50
1958;DHT22;979;51.076;13.748;2023-04-01T16:20:02;16.50;59.20
1958;DHT22;979;51.076;13.748;2023-04-01T16:22:46;16.50;58.60
1958;DHT22;979;51.076;13.748;2023-04-01T16:25:26;16.40;58.90
1958;DHT22;979;51.076;13.748;2023-04-01T16:28:09;16.30;59.00
1958;DHT22;979;51.076;13.748;2023-04-01T16:30:46;16.30;59.40
1958;DHT22;979;51.076;13.748;2023-04-01T16:33:24;16.30;59.40
1958;DHT22;979;51.076;13.748;2023-04-01T16:36:07;16.20;59.50
1958;DHT22;979;51.076;13.748;2023-04-01T16:38:46;16.20;59.60
1958;DHT22;979;51.076;13.748;2023-04-01T16:41:51;16.20;59.70
1958;DHT22;979;51.076;13.748;2023-04-01T16:44:48;16.10;59.90
1958;DHT22;979;51.076;13.748;2023-04-01T16:47:20;15.90;59.90
1958;DHT22;979;51.076;13.748;2023-04-01T16:49:52;15.90;60.10
1958;DHT22;979;51.076;13.748;2023-04-01T16:52:40;15.90;60.30
1958;DHT22;979;51.076;13.748;2023-04-01T16:55:16;16.00;60.50
1958;DHT22;979;51.076;13.748;2023-04-01T16:57:51;16.00;60.60
1958;DHT22;979;51.076;13.748;2023-04-01T17:00:28;16.00;60.60
1958;DHT22;979;51.076;13.748;2023-04-01T17:03:28;16.00;60.90
1958;DHT22;979;51.076;13.748;2023-04-01T17:06:30;16.00;61.10
1958;DHT22;979;51.076;13.748;2023-04-01T17:09:16;15.90;60.80
1958;DHT22;979;51.076;13.748;2023-04-01T17:11:54;15.90;61.00
1958;DHT22;979;51.076;13.748;2023-04-01T17:14:31;15.80;61.00
1958;DHT22;979;51.076;13.748;2023-04-01T17:17:37;15.80;61.20
1958;DHT22;979;51.076;13.748;2023-04-01T17:20:26;15.70;61.30
1958;DHT22;979;51.076;13.748;2023-04-01T17:23:26;15.70;61.30
1958;DHT22;979;51.076;13.748;2023-04-01T17:26:09;15.70;61.60
1958;DHT22;979;51.076;13.748;2023-04-01T17:28:58;15.70;61.70
1958;DHT22;979;51.076;13.748;2023-04-01T17:32:42;15.70;61.90
1958;DHT22;979;51.076;13.748;2023-04-01T17:35:29;15.70;62.20
1958;DHT22;979;51.076;13.748;2023-04-01T17:39:04;15.60;62.10
1958;DHT22;979;51.076;13.748;2023-04-01T17:59:02;15.40;63.00
1958;DHT22;979;51.076;13.748;2023-04-01T18:05:27;15.30;63.50
1958;DHT22;979;51.076;13.748;2023-04-01T18:08:17;15.30;63.60
1958;DHT22;979;51.076;13.748;2023-04-01T18:11:05;15.30;64.00
1958;DHT22;979;51.076;13.748;2023-04-01T18:13:58;15.00;63.80
1958;DHT22;979;51.076;13.748;2023-04-01T18:16:53;15.20;64.50
1958;DHT22;979;51.076;13.748;2023-04-01T18:19:36;15.20;64.60
1958;DHT22;979;51.076;13.748;2023-04-01T18:22:40;15.20;64.50
1958;DHT22;979;51.076;13.748;2023-04-01T18:25:46;15.20;64.80
1958;DHT22;979;51.076;13.748;2023-04-01T18:28:35;15.20;64.90
1958;DHT22;979;51.076;13.748;2023-04-01T18:31:40;15.00;64.80
1958;DHT22;979;51.076;13.748;2023-04-01T18:34:41;15.00;65.30
1958;DHT22;979;51.076;13.748;2023-04-01T18:37:17;15.10;65.70
1958;DHT22;979;51.076;13.748;2023-04-01T18:39:59;14.90;65.60
1958;DHT22;979;51.076;13.748;2023-04-01T18:42:45;14.80;65.70
1958;DHT22;979;51.076;13.748;2023-04-01T18:45:21;14.70;66.00
1958;DHT22;979;51.076;13.748;2023-04-01T18:48:11;14.60;66.20
1958;DHT22;979;51.076;13.748;2023-04-01T18:54:04;14.50;67.00
1958;DHT22;979;51.076;13.748;2023-04-01T18:57:49;14.30;67.10
1958;DHT22;979;51.076;13.748;2023-04-01T19:00:54;14.20;67.00
1958;DHT22;979;51.076;13.748;2023-04-01T19:03:46;14.10;67.50
1958;DHT22;979;51.076;13.748;2023-04-01T19:06:21;14.00;67.30
1958;DHT22;979;51.076;13.748;2023-04-01T19:09:23;14.00;67.50
1958;DHT22;979;51.076;13.748;2023-04-01T19:15:24;13.70;67.80
1958;DHT22;979;51.076;13.748;2023-04-01T19:21:27;13.60;68.10
1958;DHT22;979;51.076;13.748;2023-04-01T19:24:34;13.60;68.40
1958;DHT22;979;51.076;13.748;2023-04-01T19:27:22;13.60;68.40
1958;DHT22;979;51.076;13.748;2023-04-01T19:30:07;13.60;68.40
1958;DHT22;979;51.076;13.748;2023-04-01T19:32:51;13.70;68.60
1958;DHT22;979;51.076;13.748;2023-04-01T19:35:28;13.70;68.70
1958;DHT22;979;51.076;13.748;2023-04-01T19:38:04;13.70;68.80
1958;DHT22;979;51.076;13.748;2023-04-01T19:40:51;13.60;68.90
1958;DHT22;979;51.076;13.748;2023-04-01T19:43:47;13.80;69.20
1958;DHT22;979;51.076;13.748;2023-04-01T19:46:26;13.50;69.10
1958;DHT22;979;51.076;13.748;2023-04-01T19:49:14;13.50;69.10
1958;DHT22;979;51.076;13.748;2023-04-01T19:51:53;13.50;69.40
1958;DHT22;979;51.076;13.748;2023-04-01T19:54:33;13.40;69.40
1958;DHT22;979;51.076;13.748;2023-04-01T19:57:16;13.50;69.80
1958;DHT22;979;51.076;13.748;2023-04-01T19:59:54;13.50;70.00
1958;DHT22;979;51.076;13.748;2023-04-01T20:02:55;13.50;70.20
1958;DHT22;979;51.076;13.748;2023-04-01T20:05:35;13.70;70.10
1958;DHT22;979;51.076;13.748;2023-04-01T20:08:15;13.50;69.90
1958;DHT22;979;51.076;13.748;2023-04-01T20:10:56;13.60;70.10
1958;DHT22;979;51.076;13.748;2023-04-01T20:13:37;13.60;70.10
1958;DHT22;979;51.076;13.748;2023-04-01T20:16:16;13.60;70.00
1958;DHT22;979;51.076;13.748;2023-04-01T20:18:48;13.70;70.80
1958;DHT22;979;51.076;13.748;2023-04-01T20:21:30;13.70;70.10
1958;DHT22;979;51.076;13.748;2023-04-01T20:24:04;13.70;70.10
1958;DHT22;979;51.076;13.748;2023-04-01T20:26:39;13.70;70.20
1958;DHT22;979;51.076;13.748;2023-04-01T20:29:34;13.70;70.40
1958;DHT22;979;51.076;13.748;2023-04-01T20:32:23;13.80;70.50
1958;DHT22;979;51.076;13.748;2023-04-01T20:35:24;13.80;70.40
1958;DHT22;979;51.076;13.748;2023-04-01T20:38:13;13.80;70.40
1958;DHT22;979;51.076;13.748;2023-04-01T20:40:51;13.80;70.40
1958;DHT22;979;51.076;13.748;2023-04-01T20:43:49;13.80;70.50
1958;DHT22;979;51.076;13.748;2023-04-01T20:46:33;13.80;70.40
1958;DHT22;979;51.076;13.748;2023-04-01T20:49:23;13.80;70.40
1958;DHT22;979;51.076;13.748;2023-04-01T20:52:02;13.80;70.50
1958;DHT22;979;51.076;13.748;2023-04-01T20:54:51;13.60;70.60
1958;DHT22;979;51.076;13.748;2023-04-01T20:57:29;13.70;71.00
1958;DHT22;979;51.076;13.748;2023-04-01T21:00:16;13.60;71.10
1958;DHT22;979;51.076;13.748;2023-04-01T21:03:01;13.60;71.30
1958;DHT22;979;51.076;13.748;2023-04-01T21:05:45;13.60;71.50
1958;DHT22;979;51.076;13.748;2023-04-01T21:08:24;13.60;71.50
1958;DHT22;979;51.076;13.748;2023-04-01T21:11:03;13.60;71.60
1958;DHT22;979;51.076;13.748;2023-04-01T21:13:57;13.60;71.90
1958;DHT22;979;51.076;13.748;2023-04-01T21:16:40;13.60;72.00
1958;DHT22;979;51.076;13.748;2023-04-01T21:19:44;13.60;72.10
1958;DHT22;979;51.076;13.748;2023-04-01T21:25:30;13.60;72.30
1958;DHT22;979;51.076;13.748;2023-04-01T21:31:09;13.50;72.20
1958;DHT22;979;51.076;13.748;2023-04-01T21:34:06;13.50;72.60
1958;DHT22;979;51.076;13.748;2023-04-01T21:36:54;13.50;72.70
1958;DHT22;979;51.076;13.748;2023-04-01T21:39:50;13.40;73.00
1958;DHT22;979;51.076;13.748;2023-04-01T21:42:31;13.30;73.00
1958;DHT22;979;51.076;13.748;2023-04-01T21:48:24;13.10;73.20
1958;DHT22;979;51.076;13.748;2023-04-01T21:51:15;13.00;73.50
1958;DHT22;979;51.076;13.748;2023-04-01T21:54:11;13.00;73.70
1958;DHT22;979;51.076;13.748;2023-04-01T21:57:17;12.90;73.70
1958;DHT22;979;51.076;13.748;2023-04-01T22:00:07;12.90;73.90
1958;DHT22;979;51.076;13.748;2023-04-01T22:08:56;12.80;74.20
1958;DHT22;979;51.076;13.748;2023-04-01T22:11:38;12.70;74.30
1958;DHT22;979;51.076;13.748;2023-04-01T22:14:16;12.60;74.30
1958;DHT22;979;51.076;13.748;2023-04-01T22:16:55;12.50;74.50
1958;DHT22;979;51.076;13.748;2023-04-01T22:19:31;12.40;74.90